TWY10 LTFM-KDEN
Flight info
| Callsign | TWY10 |
|---|---|
| Flight time | N/A |
| Altitude | 36000 |
| Route | TUDBU Q26 ETUBA DCT DEGET DCT PATAK DCT ODNEM DCT ELMEK DCT VEXIL DCT KATCE DCT MIMVA DCT OTBED L60 PENIL M144 BAGSO DCT RESNO/M083F380 DCT 56N020W 56N030W 56N040W 55N050W DCT LOMSI/N0486F400 DCT SPOTE DCT YMO/N0484F430 DCT 50N088W DCT FAR DCT GILTE DCT NYTRO AALLE4 |
| Aircraft | GLF5/M-SFGHIRWXY/S |
Departure
| Time | N/A |
|---|---|
| Airport | İstanbul Airport (LTFM) |
Arrival
| Time | 2026-05-04 16:31 |
|---|---|
| Airport | Denver International Airport (KDEN) |
| Time | Latitude | Longitude | Altitude | Speed | Heading |
|---|---|---|---|---|---|
| 2026-05-04 16:11 | 41.15162 | -103.16995 | 34313 ft | 468 kts | 187° |
| 2026-05-04 16:11 | 41.11945 | -103.17113 | 33747 ft | 463 kts | 187° |
| 2026-05-04 16:12 | 41.02674 | -103.18727 | 32204 ft | 431 kts | 214° |
| 2026-05-04 16:12 | 40.95606 | -103.25529 | 30794 ft | 413 kts | 223° |
| 2026-05-04 16:13 | 40.91077 | -103.30073 | 29883 ft | 408 kts | 223° |
| 2026-05-04 16:13 | 40.86552 | -103.34610 | 28971 ft | 405 kts | 223° |
| 2026-05-04 16:14 | 40.82085 | -103.39084 | 28080 ft | 401 kts | 222° |
| 2026-05-04 16:14 | 40.77676 | -103.43484 | 27181 ft | 398 kts | 222° |
| 2026-05-04 16:15 | 40.71096 | -103.50033 | 25851 ft | 392 kts | 222° |
| 2026-05-04 16:16 | 40.66764 | -103.54337 | 24990 ft | 388 kts | 221° |
| 2026-05-04 16:16 | 40.60334 | -103.60743 | 23713 ft | 384 kts | 221° |
| 2026-05-04 16:17 | 40.56122 | -103.64952 | 22883 ft | 380 kts | 221° |
| 2026-05-04 16:18 | 40.49855 | -103.71201 | 21640 ft | 374 kts | 220° |
| 2026-05-04 16:18 | 40.47758 | -103.73287 | 21211 ft | 372 kts | 220° |
| 2026-05-04 16:19 | 40.42982 | -103.80850 | 19973 ft | 361 kts | 241° |
| 2026-05-04 16:19 | 40.40420 | -103.86423 | 19170 ft | 355 kts | 242° |
| 2026-05-04 16:20 | 40.36610 | -103.94713 | 17997 ft | 351 kts | 241° |
| 2026-05-04 16:20 | 40.34119 | -104.00117 | 17279 ft | 338 kts | 241° |
| 2026-05-04 16:21 | 40.30286 | -104.07352 | 16274 ft | 314 kts | 228° |
| 2026-05-04 16:22 | 40.27207 | -104.11365 | 15607 ft | 311 kts | 228° |
| 2026-05-04 16:22 | 40.22631 | -104.17323 | 14567 ft | 307 kts | 228° |
| 2026-05-04 16:23 | 40.17146 | -104.21835 | 13701 ft | 341 kts | 202° |
| 2026-05-04 16:24 | 40.08098 | -104.26131 | 12171 ft | 343 kts | 202° |
| 2026-05-04 16:25 | 40.03639 | -104.28242 | 11422 ft | 341 kts | 202° |
| 2026-05-04 16:26 | 39.94809 | -104.32413 | 9924 ft | 334 kts | 202° |
| 2026-05-04 16:26 | 39.88792 | -104.35977 | 9003 ft | 295 kts | 234° |
| 2026-05-04 16:27 | 39.87737 | -104.40749 | 8993 ft | 258 kts | 265° |
| 2026-05-04 16:28 | 39.87603 | -104.46736 | 8990 ft | 197 kts | 272° |
| 2026-05-04 16:28 | 39.87650 | -104.51576 | 8343 ft | 158 kts | 272° |
| 2026-05-04 16:29 | 39.87705 | -104.56757 | 6525 ft | 131 kts | 270° |
| 2026-05-04 16:30 | 39.87698 | -104.60214 | 5714 ft | 127 kts | 271° |
| 2026-05-04 16:31 | 39.87727 | -104.62524 | 5294 ft | 121 kts | 270° |
| 2026-05-04 16:31 | 39.87740 | -104.64173 | 5336 ft | 21 kts | 269° |
| 2026-05-04 16:32 | 39.87706 | -104.64484 | 5349 ft | 2 kts | 251° |
| 2026-05-04 16:33 | 39.87666 | -104.64604 | 5354 ft | 12 kts | 242° |
| 2026-05-04 16:33 | 39.87647 | -104.64646 | 5356 ft | 0 kts | 238° |
| 2026-05-04 16:34 | 39.87578 | -104.64893 | 5355 ft | 25 kts | 274° |
| 2026-05-04 16:34 | 39.87584 | -104.65126 | 5349 ft | 25 kts | 270° |
| 2026-05-04 16:35 | 39.87588 | -104.65791 | 5340 ft | 22 kts | 271° |
| 2026-05-04 16:35 | 39.87567 | -104.66206 | 5341 ft | 6 kts | 205° |
| 2026-05-04 16:36 | 39.87528 | -104.66213 | 5343 ft | 7 kts | 181° |
| 2026-05-04 16:36 | 39.87325 | -104.66215 | 5354 ft | 18 kts | 180° |
| 2026-05-04 16:37 | 39.86983 | -104.66221 | 5382 ft | 22 kts | 180° |
| 2026-05-04 16:37 | 39.86901 | -104.66221 | 5388 ft | 13 kts | 180° |
| 2026-05-04 16:37 | 39.86541 | -104.66225 | 5411 ft | 31 kts | 181° |
| 2026-05-04 16:38 | 39.86105 | -104.66232 | 5425 ft | 31 kts | 181° |
| 2026-05-04 16:39 | 39.85397 | -104.66238 | 5423 ft | 33 kts | 180° |
| 2026-05-04 16:39 | 39.84932 | -104.66245 | 5409 ft | 33 kts | 181° |
| 2026-05-04 16:40 | 39.84465 | -104.66250 | 5399 ft | 32 kts | 179° |
| 2026-05-04 16:40 | 39.84115 | -104.66253 | 5405 ft | 10 kts | 180° |
| 2026-05-04 16:41 | 39.84022 | -104.66296 | 5406 ft | 10 kts | 254° |
| 2026-05-04 16:41 | 39.83829 | -104.66442 | 5402 ft | 10 kts | 240° |
| 2026-05-04 16:42 | 39.83878 | -104.66538 | 5397 ft | 3 kts | 0° |
| 2026-05-04 16:43 | 39.83880 | -104.66538 | 5396 ft | 0 kts | 0° |